sensor_id;sensor_type;location;lat;lon;timestamp;temperature;humidity
21312;DHT22;18076;52.154;10.570;2022-11-28T00:00:55;5.40;99.90
21312;DHT22;18076;52.154;10.570;2022-11-28T00:03:21;5.40;99.90
21312;DHT22;18076;52.154;10.570;2022-11-28T00:05:47;5.50;99.90
21312;DHT22;18076;52.154;10.570;2022-11-28T00:08:12;5.40;99.90
21312;DHT22;18076;52.154;10.570;2022-11-28T00:10:38;5.50;99.90
21312;DHT22;18076;52.154;10.570;2022-11-28T00:13:04;5.60;99.90
21312;DHT22;18076;52.154;10.570;2022-11-28T00:15:30;5.50;99.90
21312;DHT22;18076;52.154;10.570;2022-11-28T00:17:55;5.50;99.90
21312;DHT22;18076;52.154;10.570;2022-11-28T00:20:21;5.50;99.90
21312;DHT22;18076;52.154;10.570;2022-11-28T00:22:46;5.60;99.90
21312;DHT22;18076;52.154;10.570;2022-11-28T00:25:12;5.50;99.90
21312;DHT22;18076;52.154;10.570;2022-11-28T00:27:37;5.50;99.90
21312;DHT22;18076;52.154;10.570;2022-11-28T00:30:03;5.50;99.90
21312;DHT22;18076;52.154;10.570;2022-11-28T00:32:28;5.50;99.90
21312;DHT22;18076;52.154;10.570;2022-11-28T00:34:54;5.50;99.90
21312;DHT22;18076;52.154;10.570;2022-11-28T00:37:19;5.60;99.90
21312;DHT22;18076;52.154;10.570;2022-11-28T00:39:45;5.40;99.90
21312;DHT22;18076;52.154;10.570;2022-11-28T00:42:10;5.50;99.90
21312;DHT22;18076;52.154;10.570;2022-11-28T00:44:36;5.40;99.90
21312;DHT22;18076;52.154;10.570;2022-11-28T00:47:02;5.30;99.90
21312;DHT22;18076;52.154;10.570;2022-11-28T00:49:27;5.40;99.90
21312;DHT22;18076;52.154;10.570;2022-11-28T00:51:53;5.40;99.90
21312;DHT22;18076;52.154;10.570;2022-11-28T00:54:18;5.30;99.90
21312;DHT22;18076;52.154;10.570;2022-11-28T00:56:44;5.30;99.90
21312;DHT22;18076;52.154;10.570;2022-11-28T00:59:09;5.30;99.90
21312;DHT22;18076;52.154;10.570;2022-11-28T01:01:36;5.30;99.90
21312;DHT22;18076;52.154;10.570;2022-11-28T01:04:03;5.40;99.90
21312;DHT22;18076;52.154;10.570;2022-11-28T01:06:33;5.40;99.90
21312;DHT22;18076;52.154;10.570;2022-11-28T01:09:00;5.50;99.90
21312;DHT22;18076;52.154;10.570;2022-11-28T01:11:26;5.50;99.90
21312;DHT22;18076;52.154;10.570;2022-11-28T01:13:53;5.60;99.90
21312;DHT22;18076;52.154;10.570;2022-11-28T01:16:18;5.50;99.90
21312;DHT22;18076;52.154;10.570;2022-11-28T01:18:44;5.60;99.90
21312;DHT22;18076;52.154;10.570;2022-11-28T01:21:09;5.50;99.90
21312;DHT22;18076;52.154;10.570;2022-11-28T01:23:35;5.50;99.90
21312;DHT22;18076;52.154;10.570;2022-11-28T01:26:01;5.50;99.90
21312;DHT22;18076;52.154;10.570;2022-11-28T01:28:27;5.50;99.90
21312;DHT22;18076;52.154;10.570;2022-11-28T01:30:53;5.50;99.90
21312;DHT22;18076;52.154;10.570;2022-11-28T01:33:19;5.60;99.90
21312;DHT22;18076;52.154;10.570;2022-11-28T01:36:02;5.70;99.90
21312;DHT22;18076;52.154;10.570;2022-11-28T01:38:28;5.60;99.90
21312;DHT22;18076;52.154;10.570;2022-11-28T01:40:54;5.60;99.90
21312;DHT22;18076;52.154;10.570;2022-11-28T01:43:20;5.60;99.90
21312;DHT22;18076;52.154;10.570;2022-11-28T01:45:45;5.70;99.90
21312;DHT22;18076;52.154;10.570;2022-11-28T01:48:12;5.70;99.90
21312;DHT22;18076;52.154;10.570;2022-11-28T01:50:38;5.80;99.90
21312;DHT22;18076;52.154;10.570;2022-11-28T01:53:05;5.70;99.90
21312;DHT22;18076;52.154;10.570;2022-11-28T01:55:34;5.70;99.90
21312;DHT22;18076;52.154;10.570;2022-11-28T01:58:02;5.70;99.90
21312;DHT22;18076;52.154;10.570;2022-11-28T02:00:28;5.70;99.90
21312;DHT22;18076;52.154;10.570;2022-11-28T02:02:55;5.70;99.90
21312;DHT22;18076;52.154;10.570;2022-11-28T02:05:22;5.70;99.90
21312;DHT22;18076;52.154;10.570;2022-11-28T02:07:47;5.70;99.90
21312;DHT22;18076;52.154;10.570;2022-11-28T02:10:16;5.70;99.90
21312;DHT22;18076;52.154;10.570;2022-11-28T02:12:47;5.60;99.90
21312;DHT22;18076;52.154;10.570;2022-11-28T02:30:27;5.60;99.90
21312;DHT22;18076;52.154;10.570;2022-11-28T02:40:33;5.60;99.90
21312;DHT22;18076;52.154;10.570;2022-11-28T02:43:07;5.50;99.90
21312;DHT22;18076;52.154;10.570;2022-11-28T02:45:56;5.50;99.90
21312;DHT22;18076;52.154;10.570;2022-11-28T02:48:25;5.50;99.90
21312;DHT22;18076;52.154;10.570;2022-11-28T02:51:00;5.50;99.90
21312;DHT22;18076;52.154;10.570;2022-11-28T02:53:29;5.50;99.90
21312;DHT22;18076;52.154;10.570;2022-11-28T02:55:55;5.50;99.90
21312;DHT22;18076;52.154;10.570;2022-11-28T02:58:21;5.50;99.90
21312;DHT22;18076;52.154;10.570;2022-11-28T03:00:47;5.50;99.90
21312;DHT22;18076;52.154;10.570;2022-11-28T03:03:35;5.50;99.90
21312;DHT22;18076;52.154;10.570;2022-11-28T03:11:27;5.40;99.90
21312;DHT22;18076;52.154;10.570;2022-11-28T03:14:06;5.40;99.90
21312;DHT22;18076;52.154;10.570;2022-11-28T03:16:35;5.30;99.90
21312;DHT22;18076;52.154;10.570;2022-11-28T03:19:09;5.20;99.90
21312;DHT22;18076;52.154;10.570;2022-11-28T03:22:18;5.20;99.90
21312;DHT22;18076;52.154;10.570;2022-11-28T03:27:03;5.30;99.90
21312;DHT22;18076;52.154;10.570;2022-11-28T03:29:36;5.40;99.90
21312;DHT22;18076;52.154;10.570;2022-11-28T03:32:08;5.40;99.90
21312;DHT22;18076;52.154;10.570;2022-11-28T03:34:37;5.40;99.90
21312;DHT22;18076;52.154;10.570;2022-11-28T03:37:13;5.40;99.90
21312;DHT22;18076;52.154;10.570;2022-11-28T03:39:41;5.30;99.90
21312;DHT22;18076;52.154;10.570;2022-11-28T03:42:10;5.20;99.90
21312;DHT22;18076;52.154;10.570;2022-11-28T03:44:44;5.20;99.90
21312;DHT22;18076;52.154;10.570;2022-11-28T03:47:11;5.10;99.90
21312;DHT22;18076;52.154;10.570;2022-11-28T03:49:38;5.10;99.90
21312;DHT22;18076;52.154;10.570;2022-11-28T03:52:06;5.00;99.90
21312;DHT22;18076;52.154;10.570;2022-11-28T03:57:12;4.90;99.90
21312;DHT22;18076;52.154;10.570;2022-11-28T03:59:43;4.80;99.90
21312;DHT22;18076;52.154;10.570;2022-11-28T04:02:13;4.80;99.90
21312;DHT22;18076;52.154;10.570;2022-11-28T04:10:11;4.90;99.90
21312;DHT22;18076;52.154;10.570;2022-11-28T04:18:13;4.90;99.90
21312;DHT22;18076;52.154;10.570;2022-11-28T04:20:36;4.90;99.90
21312;DHT22;18076;52.154;10.570;2022-11-28T04:23:08;4.90;99.90
21312;DHT22;18076;52.154;10.570;2022-11-28T04:25:35;4.90;99.90
21312;DHT22;18076;52.154;10.570;2022-11-28T04:28:03;5.00;99.90
21312;DHT22;18076;52.154;10.570;2022-11-28T04:30:30;5.00;99.90
21312;DHT22;18076;52.154;10.570;2022-11-28T04:32:57;4.90;99.90
21312;DHT22;18076;52.154;10.570;2022-11-28T04:35:26;5.00;99.90
21312;DHT22;18076;52.154;10.570;2022-11-28T04:37:54;5.00;99.90
21312;DHT22;18076;52.154;10.570;2022-11-28T04:40:21;5.10;99.90
21312;DHT22;18076;52.154;10.570;2022-11-28T04:42:48;5.10;99.90
21312;DHT22;18076;52.154;10.570;2022-11-28T04:45:17;5.10;99.90
21312;DHT22;18076;52.154;10.570;2022-11-28T04:47:44;5.00;99.90
21312;DHT22;18076;52.154;10.570;2022-11-28T04:50:09;5.10;99.90
21312;DHT22;18076;52.154;10.570;2022-11-28T04:52:53;5.10;99.90
21312;DHT22;18076;52.154;10.570;2022-11-28T04:57:50;5.10;99.90
21312;DHT22;18076;52.154;10.570;2022-11-28T05:00:18;5.10;99.90
21312;DHT22;18076;52.154;10.570;2022-11-28T05:02:44;5.20;99.90
21312;DHT22;18076;52.154;10.570;2022-11-28T05:05:11;5.20;99.90
21312;DHT22;18076;52.154;10.570;2022-11-28T05:07:38;5.20;99.90
21312;DHT22;18076;52.154;10.570;2022-11-28T05:10:04;5.20;99.90
21312;DHT22;18076;52.154;10.570;2022-11-28T05:12:29;5.20;99.90
21312;DHT22;18076;52.154;10.570;2022-11-28T05:14:55;5.20;99.90
21312;DHT22;18076;52.154;10.570;2022-11-28T05:17:20;5.20;99.90
21312;DHT22;18076;52.154;10.570;2022-11-28T05:19:46;5.20;99.90
21312;DHT22;18076;52.154;10.570;2022-11-28T05:22:11;5.20;99.90
21312;DHT22;18076;52.154;10.570;2022-11-28T05:24:37;5.20;99.90
21312;DHT22;18076;52.154;10.570;2022-11-28T05:27:02;5.20;99.90
21312;DHT22;18076;52.154;10.570;2022-11-28T05:29:28;5.10;99.90
21312;DHT22;18076;52.154;10.570;2022-11-28T05:31:53;5.10;99.90
21312;DHT22;18076;52.154;10.570;2022-11-28T05:34:19;5.10;99.90
21312;DHT22;18076;52.154;10.570;2022-11-28T05:36:44;5.10;99.90
21312;DHT22;18076;52.154;10.570;2022-11-28T05:39:10;5.10;99.90
21312;DHT22;18076;52.154;10.570;2022-11-28T05:41:35;5.30;99.90
21312;DHT22;18076;52.154;10.570;2022-11-28T05:44:01;5.30;99.90
21312;DHT22;18076;52.154;10.570;2022-11-28T05:46:26;5.30;99.90
21312;DHT22;18076;52.154;10.570;2022-11-28T05:48:52;5.40;99.90
21312;DHT22;18076;52.154;10.570;2022-11-28T05:51:18;5.40;99.90
21312;DHT22;18076;52.154;10.570;2022-11-28T05:53:43;5.40;99.90
21312;DHT22;18076;52.154;10.570;2022-11-28T05:56:10;5.40;99.90
21312;DHT22;18076;52.154;10.570;2022-11-28T05:58:36;5.40;99.90
21312;DHT22;18076;52.154;10.570;2022-11-28T06:01:12;5.40;99.90
21312;DHT22;18076;52.154;10.570;2022-11-28T06:03:38;5.50;99.90
21312;DHT22;18076;52.154;10.570;2022-11-28T06:06:04;5.50;99.90
21312;DHT22;18076;52.154;10.570;2022-11-28T06:08:32;5.50;99.90
21312;DHT22;18076;52.154;10.570;2022-11-28T06:10:58;5.50;99.90
21312;DHT22;18076;52.154;10.570;2022-11-28T06:13:23;5.50;99.90
21312;DHT22;18076;52.154;10.570;2022-11-28T06:15:50;5.60;99.90
21312;DHT22;18076;52.154;10.570;2022-11-28T06:18:15;5.60;99.90
21312;DHT22;18076;52.154;10.570;2022-11-28T06:20:41;5.60;99.90
21312;DHT22;18076;52.154;10.570;2022-11-28T06:23:06;5.60;99.90
21312;DHT22;18076;52.154;10.570;2022-11-28T06:25:32;5.50;99.90
21312;DHT22;18076;52.154;10.570;2022-11-28T06:27:57;5.60;99.90
21312;DHT22;18076;52.154;10.570;2022-11-28T06:30:23;5.50;99.90
21312;DHT22;18076;52.154;10.570;2022-11-28T06:32:49;5.50;99.90
21312;DHT22;18076;52.154;10.570;2022-11-28T06:35:14;5.50;99.90
21312;DHT22;18076;52.154;10.570;2022-11-28T06:37:40;5.50;99.90
21312;DHT22;18076;52.154;10.570;2022-11-28T06:40:05;5.50;99.90
21312;DHT22;18076;52.154;10.570;2022-11-28T06:42:33;5.40;99.90
21312;DHT22;18076;52.154;10.570;2022-11-28T06:45:01;5.40;99.90
21312;DHT22;18076;52.154;10.570;2022-11-28T06:47:26;5.30;99.90
21312;DHT22;18076;52.154;10.570;2022-11-28T06:49:52;5.30;99.90
21312;DHT22;18076;52.154;10.570;2022-11-28T06:52:17;5.30;99.90
21312;DHT22;18076;52.154;10.570;2022-11-28T06:54:43;5.20;99.90
21312;DHT22;18076;52.154;10.570;2022-11-28T06:57:08;5.40;99.90
21312;DHT22;18076;52.154;10.570;2022-11-28T06:59:34;5.30;99.90
21312;DHT22;18076;52.154;10.570;2022-11-28T07:01:59;5.30;99.90
21312;DHT22;18076;52.154;10.570;2022-11-28T07:04:27;5.20;99.90
21312;DHT22;18076;52.154;10.570;2022-11-28T07:06:53;5.30;99.90
21312;DHT22;18076;52.154;10.570;2022-11-28T07:09:19;5.20;99.90
21312;DHT22;18076;52.154;10.570;2022-11-28T07:11:44;5.20;99.90
21312;DHT22;18076;52.154;10.570;2022-11-28T07:14:10;5.20;99.90
21312;DHT22;18076;52.154;10.570;2022-11-28T07:16:36;5.20;99.90
21312;DHT22;18076;52.154;10.570;2022-11-28T07:19:02;5.10;99.90
21312;DHT22;18076;52.154;10.570;2022-11-28T07:21:28;5.10;99.90
21312;DHT22;18076;52.154;10.570;2022-11-28T07:23:54;5.20;99.90
21312;DHT22;18076;52.154;10.570;2022-11-28T07:26:20;5.10;99.90
21312;DHT22;18076;52.154;10.570;2022-11-28T07:28:46;5.00;99.90
21312;DHT22;18076;52.154;10.570;2022-11-28T07:31:12;5.00;99.90
21312;DHT22;18076;52.154;10.570;2022-11-28T07:33:39;4.90;99.90
21312;DHT22;18076;52.154;10.570;2022-11-28T07:36:05;4.90;99.90
21312;DHT22;18076;52.154;10.570;2022-11-28T07:38:31;4.90;99.90
21312;DHT22;18076;52.154;10.570;2022-11-28T07:41:04;4.90;99.90
21312;DHT22;18076;52.154;10.570;2022-11-28T07:43:29;4.80;99.90
21312;DHT22;18076;52.154;10.570;2022-11-28T07:45:55;4.90;99.90
21312;DHT22;18076;52.154;10.570;2022-11-28T07:48:22;4.90;99.90
21312;DHT22;18076;52.154;10.570;2022-11-28T07:50:47;4.90;99.90
21312;DHT22;18076;52.154;10.570;2022-11-28T07:53:13;4.90;99.90
21312;DHT22;18076;52.154;10.570;2022-11-28T07:55:39;4.90;99.90
21312;DHT22;18076;52.154;10.570;2022-11-28T07:58:04;4.90;99.90
21312;DHT22;18076;52.154;10.570;2022-11-28T08:00:30;4.90;99.90
21312;DHT22;18076;52.154;10.570;2022-11-28T08:02:55;4.90;99.90
21312;DHT22;18076;52.154;10.570;2022-11-28T08:05:21;4.90;99.90
21312;DHT22;18076;52.154;10.570;2022-11-28T08:07:47;4.90;99.90
21312;DHT22;18076;52.154;10.570;2022-11-28T08:10:13;4.90;99.90
21312;DHT22;18076;52.154;10.570;2022-11-28T08:12:38;4.90;99.90
21312;DHT22;18076;52.154;10.570;2022-11-28T08:15:04;4.90;99.90
21312;DHT22;18076;52.154;10.570;2022-11-28T08:17:30;5.00;99.90
21312;DHT22;18076;52.154;10.570;2022-11-28T08:19:55;5.00;99.90
21312;DHT22;18076;52.154;10.570;2022-11-28T08:22:21;5.00;99.90
21312;DHT22;18076;52.154;10.570;2022-11-28T08:24:46;5.10;99.90
21312;DHT22;18076;52.154;10.570;2022-11-28T08:27:12;5.20;99.90
21312;DHT22;18076;52.154;10.570;2022-11-28T08:29:38;5.30;99.90
21312;DHT22;18076;52.154;10.570;2022-11-28T08:32:03;5.30;99.90
21312;DHT22;18076;52.154;10.570;2022-11-28T08:34:29;5.20;99.90
21312;DHT22;18076;52.154;10.570;2022-11-28T08:36:54;5.20;99.90
21312;DHT22;18076;52.154;10.570;2022-11-28T08:39:20;5.30;99.90
21312;DHT22;18076;52.154;10.570;2022-11-28T08:41:45;5.30;99.90
21312;DHT22;18076;52.154;10.570;2022-11-28T08:44:11;5.30;99.90
21312;DHT22;18076;52.154;10.570;2022-11-28T08:46:37;5.30;99.90
21312;DHT22;18076;52.154;10.570;2022-11-28T08:49:02;5.40;99.90
21312;DHT22;18076;52.154;10.570;2022-11-28T08:51:28;5.40;99.90
21312;DHT22;18076;52.154;10.570;2022-11-28T08:53:54;5.40;99.90
21312;DHT22;18076;52.154;10.570;2022-11-28T08:56:19;5.40;99.90
21312;DHT22;18076;52.154;10.570;2022-11-28T08:58:45;5.40;99.90
21312;DHT22;18076;52.154;10.570;2022-11-28T09:01:18;5.50;99.90
21312;DHT22;18076;52.154;10.570;2022-11-28T09:03:44;5.60;99.90
21312;DHT22;18076;52.154;10.570;2022-11-28T09:06:11;5.60;99.90
21312;DHT22;18076;52.154;10.570;2022-11-28T09:08:36;5.60;99.90
21312;DHT22;18076;52.154;10.570;2022-11-28T09:11:04;5.50;99.90
21312;DHT22;18076;52.154;10.570;2022-11-28T09:13:30;5.60;99.90
21312;DHT22;18076;52.154;10.570;2022-11-28T09:15:55;5.50;99.90
21312;DHT22;18076;52.154;10.570;2022-11-28T09:18:21;5.60;99.90
21312;DHT22;18076;52.154;10.570;2022-11-28T09:20:47;5.60;99.90
21312;DHT22;18076;52.154;10.570;2022-11-28T09:23:12;5.60;99.90
21312;DHT22;18076;52.154;10.570;2022-11-28T09:25:38;5.70;99.90
21312;DHT22;18076;52.154;10.570;2022-11-28T09:28:04;5.80;99.90
21312;DHT22;18076;52.154;10.570;2022-11-28T09:30:30;5.80;99.90
21312;DHT22;18076;52.154;10.570;2022-11-28T09:32:55;5.90;99.90
21312;DHT22;18076;52.154;10.570;2022-11-28T09:35:21;5.80;99.90
21312;DHT22;18076;52.154;10.570;2022-11-28T09:37:46;5.90;99.90
21312;DHT22;18076;52.154;10.570;2022-11-28T09:40:45;5.90;99.90
21312;DHT22;18076;52.154;10.570;2022-11-28T09:43:15;5.90;99.90
21312;DHT22;18076;52.154;10.570;2022-11-28T09:45:43;6.00;99.90
21312;DHT22;18076;52.154;10.570;2022-11-28T09:48:55;5.90;99.90
21312;DHT22;18076;52.154;10.570;2022-11-28T09:50:57;6.00;99.90
21312;DHT22;18076;52.154;10.570;2022-11-28T09:53:41;6.00;99.90
21312;DHT22;18076;52.154;10.570;2022-11-28T09:56:11;6.10;99.90
21312;DHT22;18076;52.154;10.570;2022-11-28T09:58:46;6.10;99.90
21312;DHT22;18076;52.154;10.570;2022-11-28T10:03:58;6.00;99.90
21312;DHT22;18076;52.154;10.570;2022-11-28T10:08:56;6.00;99.90
21312;DHT22;18076;52.154;10.570;2022-11-28T10:19:08;6.00;99.90
21312;DHT22;18076;52.154;10.570;2022-11-28T10:21:40;5.90;99.90
21312;DHT22;18076;52.154;10.570;2022-11-28T10:24:16;5.90;99.90
21312;DHT22;18076;52.154;10.570;2022-11-28T10:26:44;5.90;99.90
21312;DHT22;18076;52.154;10.570;2022-11-28T10:29:14;5.90;99.90
21312;DHT22;18076;52.154;10.570;2022-11-28T10:31:43;6.00;99.90
21312;DHT22;18076;52.154;10.570;2022-11-28T10:36:46;6.10;99.90
21312;DHT22;18076;52.154;10.570;2022-11-28T10:39:13;6.10;99.90
21312;DHT22;18076;52.154;10.570;2022-11-28T10:41:40;6.20;99.90
21312;DHT22;18076;52.154;10.570;2022-11-28T10:44:17;6.20;99.90
21312;DHT22;18076;52.154;10.570;2022-11-28T10:51:53;6.30;99.90
21312;DHT22;18076;52.154;10.570;2022-11-28T10:59:21;6.40;99.90
21312;DHT22;18076;52.154;10.570;2022-11-28T11:01:48;6.40;99.90
21312;DHT22;18076;52.154;10.570;2022-11-28T11:04:19;6.30;99.90
21312;DHT22;18076;52.154;10.570;2022-11-28T11:09:19;6.30;99.90
21312;DHT22;18076;52.154;10.570;2022-11-28T11:11:49;6.30;99.90
21312;DHT22;18076;52.154;10.570;2022-11-28T11:14:23;6.30;99.90
21312;DHT22;18076;52.154;10.570;2022-11-28T11:16:56;6.40;99.90
21312;DHT22;18076;52.154;10.570;2022-11-28T11:19:36;6.40;99.90
21312;DHT22;18076;52.154;10.570;2022-11-28T11:24:37;6.30;99.90
21312;DHT22;18076;52.154;10.570;2022-11-28T11:27:06;6.30;99.90
21312;DHT22;18076;52.154;10.570;2022-11-28T11:29:39;6.30;99.90
21312;DHT22;18076;52.154;10.570;2022-11-28T11:32:05;6.30;99.90
21312;DHT22;18076;52.154;10.570;2022-11-28T11:34:35;6.40;99.90
21312;DHT22;18076;52.154;10.570;2022-11-28T11:37:29;6.40;99.90
21312;DHT22;18076;52.154;10.570;2022-11-28T11:39:55;6.30;99.90
21312;DHT22;18076;52.154;10.570;2022-11-28T11:42:21;6.30;99.90
21312;DHT22;18076;52.154;10.570;2022-11-28T11:44:47;6.30;99.90
21312;DHT22;18076;52.154;10.570;2022-11-28T11:47:12;6.40;99.90
21312;DHT22;18076;52.154;10.570;2022-11-28T11:49:39;6.40;99.90
21312;DHT22;18076;52.154;10.570;2022-11-28T11:57:21;6.60;99.90
21312;DHT22;18076;52.154;10.570;2022-11-28T11:59:48;6.70;99.90
21312;DHT22;18076;52.154;10.570;2022-11-28T12:02:22;6.70;99.90
21312;DHT22;18076;52.154;10.570;2022-11-28T12:04:53;6.80;99.90
21312;DHT22;18076;52.154;10.570;2022-11-28T12:07:45;6.80;99.90
21312;DHT22;18076;52.154;10.570;2022-11-28T12:10:06;6.80;99.90
21312;DHT22;18076;52.154;10.570;2022-11-28T12:12:36;6.80;99.90
21312;DHT22;18076;52.154;10.570;2022-11-28T12:15:02;6.80;99.90
21312;DHT22;18076;52.154;10.570;2022-11-28T12:19:57;6.70;99.90
21312;DHT22;18076;52.154;10.570;2022-11-28T12:35:45;6.70;99.90
21312;DHT22;18076;52.154;10.570;2022-11-28T12:48:46;6.70;99.90
21312;DHT22;18076;52.154;10.570;2022-11-28T12:53:42;6.80;99.90
21312;DHT22;18076;52.154;10.570;2022-11-28T12:58:57;6.80;99.90
21312;DHT22;18076;52.154;10.570;2022-11-28T13:01:43;6.90;99.90
21312;DHT22;18076;52.154;10.570;2022-11-28T13:06:51;6.90;99.90
21312;DHT22;18076;52.154;10.570;2022-11-28T13:11:50;6.90;99.90
21312;DHT22;18076;52.154;10.570;2022-11-28T13:14:22;6.90;99.90
21312;DHT22;18076;52.154;10.570;2022-11-28T13:16:51;6.90;99.90
21312;DHT22;18076;52.154;10.570;2022-11-28T13:19:25;6.90;99.90
21312;DHT22;18076;52.154;10.570;2022-11-28T13:24:47;6.90;99.90
21312;DHT22;18076;52.154;10.570;2022-11-28T13:27:15;6.90;99.90
21312;DHT22;18076;52.154;10.570;2022-11-28T13:30:05;6.90;99.90
21312;DHT22;18076;52.154;10.570;2022-11-28T13:32:43;6.80;99.90
21312;DHT22;18076;52.154;10.570;2022-11-28T13:35:13;6.80;99.90
21312;DHT22;18076;52.154;10.570;2022-11-28T13:37:44;6.80;99.90
21312;DHT22;18076;52.154;10.570;2022-11-28T13:42:47;6.90;99.90
21312;DHT22;18076;52.154;10.570;2022-11-28T13:45:33;6.90;99.90
21312;DHT22;18076;52.154;10.570;2022-11-28T13:50:56;6.80;99.90
21312;DHT22;18076;52.154;10.570;2022-11-28T13:53:23;6.80;99.90
21312;DHT22;18076;52.154;10.570;2022-11-28T13:55:50;6.80;99.90
21312;DHT22;18076;52.154;10.570;2022-11-28T13:58:27;6.80;99.90
21312;DHT22;18076;52.154;10.570;2022-11-28T14:03:28;6.70;99.90
21312;DHT22;18076;52.154;10.570;2022-11-28T14:05:55;6.70;99.90
21312;DHT22;18076;52.154;10.570;2022-11-28T14:08:33;6.60;99.90
21312;DHT22;18076;52.154;10.570;2022-11-28T14:20:52;6.50;99.90
21312;DHT22;18076;52.154;10.570;2022-11-28T14:25:49;6.50;99.90
21312;DHT22;18076;52.154;10.570;2022-11-28T14:30:41;6.40;99.90
21312;DHT22;18076;52.154;10.570;2022-11-28T14:33:51;6.40;99.90
21312;DHT22;18076;52.154;10.570;2022-11-28T14:41:01;6.20;99.90
21312;DHT22;18076;52.154;10.570;2022-11-28T14:43:46;6.20;99.90
21312;DHT22;18076;52.154;10.570;2022-11-28T14:46:23;6.20;99.90
21312;DHT22;18076;52.154;10.570;2022-11-28T14:56:52;6.10;99.90
21312;DHT22;18076;52.154;10.570;2022-11-28T14:59:18;6.20;99.90
21312;DHT22;18076;52.154;10.570;2022-11-28T15:07:12;6.00;99.90
21312;DHT22;18076;52.154;10.570;2022-11-28T15:12:37;6.00;99.90
21312;DHT22;18076;52.154;10.570;2022-11-28T15:15:05;6.00;99.90
21312;DHT22;18076;52.154;10.570;2022-11-28T15:17:32;5.90;99.90
21312;DHT22;18076;52.154;10.570;2022-11-28T15:20:02;5.90;99.90
21312;DHT22;18076;52.154;10.570;2022-11-28T15:22:29;5.80;99.90
21312;DHT22;18076;52.154;10.570;2022-11-28T15:24:56;5.80;99.90
21312;DHT22;18076;52.154;10.570;2022-11-28T15:27:22;5.70;99.90
21312;DHT22;18076;52.154;10.570;2022-11-28T15:29:56;5.70;99.90
21312;DHT22;18076;52.154;10.570;2022-11-28T15:32:21;5.60;99.90
21312;DHT22;18076;52.154;10.570;2022-11-28T15:34:58;5.60;99.90
21312;DHT22;18076;52.154;10.570;2022-11-28T15:37:26;5.60;99.90
21312;DHT22;18076;52.154;10.570;2022-11-28T15:39:51;5.40;99.90
21312;DHT22;18076;52.154;10.570;2022-11-28T15:42:25;5.40;99.90
21312;DHT22;18076;52.154;10.570;2022-11-28T15:44:57;5.40;99.90
21312;DHT22;18076;52.154;10.570;2022-11-28T15:47:23;5.40;99.90
21312;DHT22;18076;52.154;10.570;2022-11-28T15:52:35;5.30;99.90
21312;DHT22;18076;52.154;10.570;2022-11-28T15:55:01;5.20;99.90
21312;DHT22;18076;52.154;10.570;2022-11-28T15:57:27;5.20;99.90
21312;DHT22;18076;52.154;10.570;2022-11-28T15:59:54;5.20;99.90
21312;DHT22;18076;52.154;10.570;2022-11-28T16:02:23;5.20;99.90
21312;DHT22;18076;52.154;10.570;2022-11-28T16:04:52;5.10;99.90
21312;DHT22;18076;52.154;10.570;2022-11-28T16:07:19;5.20;99.90
21312;DHT22;18076;52.154;10.570;2022-11-28T16:09:49;5.20;99.90
21312;DHT22;18076;52.154;10.570;2022-11-28T16:12:17;5.20;99.90
21312;DHT22;18076;52.154;10.570;2022-11-28T16:14:43;5.20;99.90
21312;DHT22;18076;52.154;10.570;2022-11-28T16:17:19;5.20;99.90
21312;DHT22;18076;52.154;10.570;2022-11-28T16:19:48;5.20;99.90
21312;DHT22;18076;52.154;10.570;2022-11-28T16:22:18;5.20;99.90
21312;DHT22;18076;52.154;10.570;2022-11-28T16:24:48;5.20;99.90
21312;DHT22;18076;52.154;10.570;2022-11-28T16:29:52;5.20;99.90
21312;DHT22;18076;52.154;10.570;2022-11-28T16:32:18;5.10;99.90
21312;DHT22;18076;52.154;10.570;2022-11-28T16:34:49;5.10;99.90
21312;DHT22;18076;52.154;10.570;2022-11-28T16:37:28;5.10;99.90
21312;DHT22;18076;52.154;10.570;2022-11-28T16:39:58;5.10;99.90
21312;DHT22;18076;52.154;10.570;2022-11-28T16:42:24;5.10;99.90
21312;DHT22;18076;52.154;10.570;2022-11-28T16:44:50;5.10;99.90
21312;DHT22;18076;52.154;10.570;2022-11-28T16:47:28;5.00;99.90
21312;DHT22;18076;52.154;10.570;2022-11-28T16:50:04;5.10;99.90
21312;DHT22;18076;52.154;10.570;2022-11-28T16:52:37;5.00;99.90
21312;DHT22;18076;52.154;10.570;2022-11-28T16:55:18;5.00;99.90
21312;DHT22;18076;52.154;10.570;2022-11-28T16:57:49;4.90;99.90
21312;DHT22;18076;52.154;10.570;2022-11-28T17:00:18;5.00;99.90
21312;DHT22;18076;52.154;10.570;2022-11-28T17:02:44;4.90;99.90
21312;DHT22;18076;52.154;10.570;2022-11-28T17:05:12;5.00;99.90
21312;DHT22;18076;52.154;10.570;2022-11-28T17:07:38;4.90;99.90
21312;DHT22;18076;52.154;10.570;2022-11-28T17:10:03;4.90;99.90
21312;DHT22;18076;52.154;10.570;2022-11-28T17:12:32;5.00;99.90
21312;DHT22;18076;52.154;10.570;2022-11-28T17:15:01;4.90;99.90
21312;DHT22;18076;52.154;10.570;2022-11-28T17:17:26;4.90;99.90
21312;DHT22;18076;52.154;10.570;2022-11-28T17:19:54;4.90;99.90
21312;DHT22;18076;52.154;10.570;2022-11-28T17:22:20;4.90;99.90
21312;DHT22;18076;52.154;10.570;2022-11-28T17:24:46;4.80;99.90
21312;DHT22;18076;52.154;10.570;2022-11-28T17:27:13;4.80;99.90
21312;DHT22;18076;52.154;10.570;2022-11-28T17:29:38;4.70;99.90
21312;DHT22;18076;52.154;10.570;2022-11-28T17:32:04;4.70;99.90
21312;DHT22;18076;52.154;10.570;2022-11-28T17:34:31;4.70;99.90
21312;DHT22;18076;52.154;10.570;2022-11-28T17:36:57;4.70;99.90
21312;DHT22;18076;52.154;10.570;2022-11-28T17:39:23;4.70;99.90
21312;DHT22;18076;52.154;10.570;2022-11-28T17:41:48;4.70;99.90
21312;DHT22;18076;52.154;10.570;2022-11-28T17:44:18;4.70;99.90
21312;DHT22;18076;52.154;10.570;2022-11-28T17:46:45;4.70;99.90
21312;DHT22;18076;52.154;10.570;2022-11-28T17:49:10;4.60;99.90
21312;DHT22;18076;52.154;10.570;2022-11-28T17:51:36;4.60;99.90
21312;DHT22;18076;52.154;10.570;2022-11-28T17:54:03;4.60;99.90
21312;DHT22;18076;52.154;10.570;2022-11-28T17:56:29;4.60;99.90
21312;DHT22;18076;52.154;10.570;2022-11-28T17:58:59;4.60;99.90
21312;DHT22;18076;52.154;10.570;2022-11-28T18:01:26;4.60;99.90
21312;DHT22;18076;52.154;10.570;2022-11-28T18:03:52;4.60;99.90
21312;DHT22;18076;52.154;10.570;2022-11-28T18:06:17;4.50;99.90
21312;DHT22;18076;52.154;10.570;2022-11-28T18:08:44;4.60;99.90
21312;DHT22;18076;52.154;10.570;2022-11-28T18:11:10;4.50;99.90
21312;DHT22;18076;52.154;10.570;2022-11-28T18:13:36;4.50;99.90
21312;DHT22;18076;52.154;10.570;2022-11-28T18:16:01;4.50;99.90
21312;DHT22;18076;52.154;10.570;2022-11-28T18:18:28;4.50;99.90
21312;DHT22;18076;52.154;10.570;2022-11-28T18:20:53;4.50;99.90
21312;DHT22;18076;52.154;10.570;2022-11-28T18:23:19;4.50;99.90
21312;DHT22;18076;52.154;10.570;2022-11-28T18:25:44;4.50;99.90
21312;DHT22;18076;52.154;10.570;2022-11-28T18:28:10;4.60;99.90